Etusivu
METAR-TAF:

METAR-TAF

Lentoasemat :

Raton Municipal Airport (Crews Field)

Raton, New Mexico, Yhdysvallat

Leveyspiiri: 36-44-31N, Pituuspiiri: 104-39-28W, korkeus merenpinnasta: 1935 m

Tämänhetkinen sää

Tämä raportti tehtiin 19 minuuttia sitten, kello 10.53 UTC
Tuuli 14 kn pohjoisesta/koillisesta
Lämpötila 8°C
Kosteus 81%
Ilmanpaine 1017 hPa
Näkyvyys: 16.1 km
Muutamia pilviä 1800 ft:n korkeudessa
Hajonneita pilviä 2600 ft:n korkeudessa
Pilvistä 4200 ft:n korkeudessa

METAR: KRTN 231053Z AUTO 03014KT 10SM FEW018 BKN026 OVC042 08/05 A3003 RMK AO2 SLP098 T00830050

Aika: 05:12 (11:12 UTC)


TAF: puuttuu

Säähavainnot ja -ennusteet yli 4000 lentoasemalta (METAR- ja TAF-raportit).

Käytössä olevat sääasemat on merkitty karttaan keltaisilla ja punaisilla pisteillä.

Aseta hiiri pisteen päälle nähdäksesi sääaseman nimen.

Klikkaa sitten nähdäksesi säähavainnot ja -ennusteet.

Kartan vaihtaminen: klikkaa mustalla rastilla varustettuja vihreitä pisteitä, niin voit zoomata sisään; viivalla varustettua vihreää pistettä, niin voit zoomata ulos tai vihreitä nuolia, niin pääset viereisille kartoille.


METAR-TAF: